createdAt,value
2018-02-21T00:00:07.342Z,97.90
2018-02-21T00:02:34.876Z,97.90
2018-02-21T00:05:02.444Z,98.10
2018-02-21T00:07:29.971Z,98.00
2018-02-21T00:09:58.296Z,98.00
2018-02-21T00:12:25.815Z,98.00
2018-02-21T00:14:53.342Z,98.10
2018-02-21T00:17:20.881Z,98.20
2018-02-21T00:19:48.553Z,98.40
2018-02-21T00:22:16.109Z,98.20
2018-02-21T00:24:43.650Z,98.20
2018-02-21T00:27:11.169Z,98.30
2018-02-21T00:29:38.778Z,98.40
2018-02-21T00:32:06.320Z,98.40
2018-02-21T00:34:34.619Z,98.50
2018-02-21T00:37:02.140Z,98.50
2018-02-21T00:39:29.773Z,98.50
2018-02-21T00:41:57.295Z,98.60
2018-02-21T00:44:25.578Z,98.60
2018-02-21T00:46:53.888Z,98.80
2018-02-21T00:49:21.403Z,98.80
2018-02-21T00:51:48.920Z,98.60
2018-02-21T00:54:16.491Z,98.70
2018-02-21T00:56:44.005Z,98.70
2018-02-21T00:59:12.293Z,98.80
2018-02-21T01:01:40.700Z,98.70
2018-02-21T01:04:08.205Z,98.80
2018-02-21T01:06:35.726Z,98.70
2018-02-21T01:09:03.260Z,99.00
2018-02-21T01:11:31.541Z,99.00
2018-02-21T01:13:59.946Z,99.00
2018-02-21T01:16:27.458Z,99.00
2018-02-21T01:18:54.974Z,98.90
2018-02-21T01:21:22.513Z,98.90
2018-02-21T01:23:50.816Z,99.10
2018-02-21T01:26:18.329Z,99.10
2018-02-21T01:28:45.900Z,99.00
2018-02-21T01:31:13.417Z,99.10
2018-02-21T01:33:40.933Z,99.60
2018-02-21T01:36:08.474Z,99.20
2018-02-21T01:38:36.000Z,99.20
2018-02-21T01:41:03.505Z,99.40
2018-02-21T01:43:31.092Z,99.30
2018-02-21T01:45:58.610Z,99.30
2018-02-21T01:48:26.150Z,99.20
2018-02-21T01:50:53.706Z,99.50
2018-02-21T01:53:21.226Z,99.50
2018-02-21T01:55:48.748Z,99.50
2018-02-21T01:58:16.285Z,99.50
2018-02-21T02:00:44.620Z,99.70
2018-02-21T02:03:12.140Z,99.60
2018-02-21T02:05:39.681Z,99.70
2018-02-21T02:08:07.189Z,99.70
2018-02-21T02:10:34.717Z,99.70
2018-02-21T02:13:03.016Z,99.80
2018-02-21T02:15:30.534Z,99.80
2018-02-21T02:17:58.058Z,99.70
2018-02-21T02:20:25.598Z,99.80
2018-02-21T02:22:53.117Z,99.80
2018-02-21T02:25:22.141Z,99.90
2018-02-21T02:27:50.538Z,99.90
2018-02-21T02:30:18.809Z,99.90
2018-02-21T02:32:47.117Z,99.90
2018-02-21T02:35:14.652Z,99.90
2018-02-21T02:37:42.933Z,99.90
2018-02-21T02:40:11.246Z,99.90
2018-02-21T02:42:38.770Z,99.90
2018-02-21T02:45:07.045Z,99.90
2018-02-21T02:47:34.587Z,99.90
2018-02-21T02:50:02.107Z,99.90
2018-02-21T02:52:29.633Z,99.90
2018-02-21T02:54:57.172Z,99.90
2018-02-21T02:57:24.684Z,99.90
2018-02-21T02:59:52.214Z,99.90
2018-02-21T03:02:19.748Z,99.90
2018-02-21T03:04:47.298Z,99.90
2018-02-21T03:07:14.809Z,99.90
2018-02-21T03:09:42.374Z,99.90
2018-02-21T03:12:09.896Z,99.90
2018-02-21T03:14:37.408Z,99.90
2018-02-21T03:17:04.962Z,99.90
2018-02-21T03:19:32.473Z,99.90
2018-02-21T03:21:59.983Z,99.90
2018-02-21T03:24:27.521Z,99.90
2018-02-21T03:26:55.028Z,99.90
2018-02-21T03:29:23.305Z,99.90
2018-02-21T03:31:51.608Z,99.90
2018-02-21T03:34:19.123Z,99.90
2018-02-21T03:36:46.648Z,99.90
2018-02-21T03:39:14.181Z,99.90
2018-02-21T03:41:42.462Z,99.90
2018-02-21T03:44:10.774Z,99.90
2018-02-21T03:46:38.300Z,99.90
2018-02-21T03:49:06.583Z,99.90
2018-02-21T03:51:34.899Z,99.90
2018-02-21T03:54:02.424Z,99.90
2018-02-21T03:56:30.708Z,99.90
2018-02-21T03:58:59.128Z,99.90
2018-02-21T04:01:26.647Z,99.90
2018-02-21T04:03:54.942Z,99.90
2018-02-21T04:06:23.251Z,99.90
2018-02-21T04:08:50.768Z,99.90
2018-02-21T04:11:18.288Z,99.90
2018-02-21T04:13:45.830Z,99.90
2018-02-21T04:16:13.350Z,99.90
2018-02-21T04:18:40.869Z,99.90
2018-02-21T04:21:08.505Z,99.90
2018-02-21T04:23:36.793Z,99.90
2018-02-21T04:26:05.097Z,99.90
2018-02-21T04:28:32.604Z,99.90
2018-02-21T04:31:00.125Z,99.90
2018-02-21T04:33:27.682Z,99.90
2018-02-21T04:35:55.217Z,99.90
2018-02-21T04:38:23.507Z,99.90
2018-02-21T04:40:51.926Z,99.90
2018-02-21T04:43:19.449Z,99.90
2018-02-21T04:45:47.766Z,99.90
2018-02-21T04:48:15.305Z,99.90
2018-02-21T04:50:42.817Z,99.90
2018-02-21T04:53:10.334Z,99.90
2018-02-21T04:55:56.596Z,99.90
2018-02-21T04:58:30.641Z,99.90
2018-02-21T05:00:58.188Z,99.90
2018-02-21T05:03:26.473Z,99.90
2018-02-21T05:05:53.993Z,99.90
2018-02-21T05:08:21.549Z,99.90
2018-02-21T05:10:49.071Z,99.90
2018-02-21T05:13:16.590Z,99.90
2018-02-21T05:15:44.144Z,99.90
2018-02-21T05:18:11.670Z,99.90
2018-02-21T05:20:39.177Z,99.90
2018-02-21T05:23:07.600Z,99.90
2018-02-21T05:25:35.882Z,99.90
2018-02-21T05:28:03.410Z,99.90
2018-02-21T05:30:31.071Z,99.90
2018-02-21T05:32:58.594Z,99.90
2018-02-21T05:35:26.126Z,99.90
2018-02-21T05:37:54.583Z,99.90
2018-02-21T05:40:22.121Z,99.90
2018-02-21T05:42:49.637Z,99.90
2018-02-21T05:45:17.944Z,99.90
2018-02-21T05:47:45.472Z,99.90
2018-02-21T05:50:13.786Z,99.90
2018-02-21T05:52:41.322Z,99.90
2018-02-21T05:55:09.616Z,99.90
2018-02-21T05:57:37.138Z,99.90
2018-02-21T06:00:04.714Z,99.90
2018-02-21T06:02:32.266Z,99.90
2018-02-21T06:04:59.806Z,99.90
2018-02-21T06:07:27.338Z,99.90
2018-02-21T06:09:54.857Z,99.90
2018-02-21T06:12:22.414Z,99.90
2018-02-21T06:14:49.976Z,99.90
2018-02-21T06:17:17.497Z,99.90
2018-02-21T06:19:45.030Z,99.90
2018-02-21T06:22:13.348Z,99.90
2018-02-21T06:24:40.857Z,99.90
2018-02-21T06:27:08.377Z,99.90
2018-02-21T06:29:36.012Z,99.90
2018-02-21T06:32:04.304Z,99.90
2018-02-21T06:34:31.818Z,99.90
2018-02-21T06:36:59.440Z,99.90
2018-02-21T06:39:26.958Z,99.90
2018-02-21T06:41:54.483Z,99.90
2018-02-21T06:44:23.248Z,99.90
2018-02-21T06:46:50.786Z,99.90
2018-02-21T06:49:18.321Z,99.90
2018-02-21T06:51:45.874Z,99.90
2018-02-21T06:54:13.400Z,99.70
2018-02-21T06:56:41.691Z,99.60
2018-02-21T06:59:09.343Z,99.60
2018-02-21T07:01:37.648Z,99.70
2018-02-21T07:04:05.210Z,99.60
2018-02-21T07:06:32.858Z,99.60
2018-02-21T07:09:01.142Z,99.90
2018-02-21T07:11:29.462Z,99.40
2018-02-21T07:13:57.133Z,99.40
2018-02-21T07:16:24.671Z,99.40
2018-02-21T07:18:52.253Z,99.60
2018-02-21T07:21:19.816Z,99.50
2018-02-21T07:23:47.353Z,99.70
2018-02-21T07:26:14.892Z,99.40
2018-02-21T07:28:43.238Z,99.40
2018-02-21T07:31:10.815Z,99.40
2018-02-21T07:33:38.367Z,99.40
2018-02-21T07:36:05.957Z,99.40
2018-02-21T07:38:34.334Z,99.30
2018-02-21T07:41:01.866Z,99.30
2018-02-21T07:43:29.431Z,99.00
2018-02-21T07:45:56.949Z,99.30
2018-02-21T07:48:25.294Z,98.80
2018-02-21T07:50:52.922Z,98.70
2018-02-21T07:53:20.467Z,99.30
2018-02-21T07:55:48.781Z,98.90
2018-02-21T07:58:16.356Z,98.80
2018-02-21T08:00:43.890Z,99.00
2018-02-21T08:03:11.471Z,98.50
2018-02-21T08:05:39.018Z,98.50
2018-02-21T08:08:06.576Z,98.70
2018-02-21T08:10:34.229Z,98.50
2018-02-21T08:13:01.939Z,98.60
2018-02-21T08:15:29.656Z,98.80
2018-02-21T08:17:58.101Z,98.90
2018-02-21T08:20:25.706Z,98.60
2018-02-21T08:22:53.265Z,98.40
2018-02-21T08:25:21.690Z,98.40
2018-02-21T08:27:49.425Z,98.40
2018-02-21T08:30:17.752Z,98.10
2018-02-21T08:32:45.280Z,98.10
2018-02-21T08:35:13.617Z,97.90
2018-02-21T08:37:41.181Z,97.90
2018-02-21T08:40:08.750Z,98.10
2018-02-21T08:42:36.305Z,98.10
2018-02-21T08:45:03.880Z,97.80
2018-02-21T08:47:31.454Z,98.40
2018-02-21T08:49:59.010Z,98.70
2018-02-21T08:52:26.546Z,98.50
2018-02-21T08:54:54.094Z,98.10
2018-02-21T08:57:21.705Z,97.90
2018-02-21T08:59:49.270Z,97.40
2018-02-21T09:02:16.863Z,97.70
2018-02-21T09:04:45.315Z,97.40
2018-02-21T09:07:13.005Z,97.40
2018-02-21T09:09:41.334Z,97.60
2018-02-21T09:12:08.997Z,97.60
2018-02-21T09:14:36.581Z,98.10
2018-02-21T09:17:04.384Z,97.80
2018-02-21T09:19:32.742Z,97.70
2018-02-21T09:22:00.271Z,97.70
2018-02-21T09:24:27.805Z,98.10
2018-02-21T09:26:56.152Z,98.20
2018-02-21T09:29:23.686Z,98.10
2018-02-21T09:31:51.242Z,97.90
2018-02-21T09:34:18.850Z,97.80
2018-02-21T09:36:46.430Z,97.60
2018-02-21T09:39:13.992Z,97.30
2018-02-21T09:41:42.318Z,97.70
2018-02-21T09:44:09.888Z,97.70
2018-02-21T09:46:37.470Z,97.80
2018-02-21T09:49:05.038Z,97.90
2018-02-21T09:51:32.615Z,97.50
2018-02-21T09:54:00.161Z,97.60
2018-02-21T09:56:27.732Z,97.80
2018-02-21T09:58:55.295Z,97.60
2018-02-21T10:01:22.833Z,97.60
2018-02-21T10:03:50.434Z,97.70
2018-02-21T10:06:17.977Z,97.70
2018-02-21T10:08:45.550Z,97.50
2018-02-21T10:11:13.126Z,97.30
2018-02-21T10:13:40.669Z,97.80
2018-02-21T10:16:08.191Z,97.40
2018-02-21T10:18:36.556Z,97.80
2018-02-21T10:21:04.882Z,97.50
2018-02-21T10:23:32.426Z,97.50
2018-02-21T10:25:59.988Z,97.50
2018-02-21T10:28:27.535Z,97.20
2018-02-21T10:30:55.892Z,96.90
2018-02-21T10:33:23.458Z,96.90
2018-02-21T10:35:51.001Z,97.40
2018-02-21T10:38:18.570Z,96.90
2018-02-21T10:40:46.187Z,97.00
2018-02-21T10:43:14.490Z,96.90
2018-02-21T10:45:42.066Z,96.80
2018-02-21T10:48:09.720Z,97.00
2018-02-21T10:50:37.267Z,97.40
2018-02-21T10:53:04.794Z,97.00
2018-02-21T10:55:32.340Z,97.00
2018-02-21T10:57:59.908Z,97.60
2018-02-21T11:00:33.180Z,97.00
2018-02-21T11:03:00.738Z,97.00
2018-02-21T11:05:28.318Z,96.80
2018-02-21T11:07:55.896Z,97.00
2018-02-21T11:10:23.423Z,97.00
2018-02-21T11:12:50.976Z,97.20
2018-02-21T11:15:18.629Z,97.20
2018-02-21T11:17:46.930Z,97.10
2018-02-21T11:20:14.458Z,97.10
2018-02-21T11:22:42.780Z,97.70
2018-02-21T11:25:10.315Z,97.40
2018-02-21T11:27:38.610Z,97.30
2018-02-21T11:30:06.165Z,97.30
2018-02-21T11:32:34.437Z,97.30
2018-02-21T11:35:02.739Z,97.10
2018-02-21T11:37:30.255Z,97.10
2018-02-21T11:39:57.823Z,97.20
2018-02-21T11:42:25.369Z,97.20
2018-02-21T11:44:52.898Z,97.30
2018-02-21T11:47:20.416Z,97.30
2018-02-21T11:49:47.940Z,97.00
2018-02-21T11:52:15.455Z,97.00
2018-02-21T11:54:43.741Z,97.00
2018-02-21T11:57:12.053Z,96.40
2018-02-21T11:59:39.602Z,96.40
2018-02-21T12:02:07.139Z,95.90
2018-02-21T12:04:35.575Z,95.90
2018-02-21T12:07:03.112Z,95.90
2018-02-21T12:09:30.630Z,96.10
2018-02-21T12:11:58.257Z,95.80
2018-02-21T12:14:25.782Z,95.70
2018-02-21T12:16:54.081Z,96.00
2018-02-21T12:19:21.625Z,96.00
2018-02-21T12:21:49.172Z,95.70
2018-02-21T12:24:16.698Z,95.90
2018-02-21T12:26:44.330Z,96.10
2018-02-21T12:29:12.612Z,95.90
2018-02-21T12:31:41.015Z,95.70
2018-02-21T12:34:08.524Z,95.70
2018-02-21T12:36:36.057Z,95.50
2018-02-21T12:39:21.415Z,95.80
2018-02-21T12:41:48.940Z,95.80
2018-02-21T12:44:17.256Z,96.20
2018-02-21T12:46:44.807Z,96.20
2018-02-21T12:49:12.321Z,95.80
2018-02-21T12:51:39.886Z,96.00
2018-02-21T12:54:07.482Z,96.10
2018-02-21T12:56:35.761Z,96.10
2018-02-21T12:59:04.184Z,96.30
2018-02-21T13:01:31.872Z,96.30
2018-02-21T13:03:59.464Z,96.20
2018-02-21T13:06:27.013Z,96.30
2018-02-21T13:08:54.552Z,96.70
2018-02-21T13:11:22.076Z,96.30
2018-02-21T13:13:50.401Z,96.70
2018-02-21T13:16:18.004Z,96.70
2018-02-21T13:18:45.561Z,96.90
2018-02-21T13:21:13.169Z,96.80
2018-02-21T13:23:41.428Z,97.00
2018-02-21T13:26:09.788Z,97.20
2018-02-21T13:28:37.309Z,97.20
2018-02-21T13:31:04.833Z,96.70
2018-02-21T13:33:33.147Z,96.60
2018-02-21T13:36:00.675Z,96.60
2018-02-21T13:38:28.976Z,97.00
2018-02-21T13:40:56.559Z,97.00
2018-02-21T13:43:24.109Z,96.80
2018-02-21T13:45:51.658Z,96.70
2018-02-21T13:48:19.975Z,96.80
2018-02-21T13:50:47.809Z,96.80
2018-02-21T13:53:16.109Z,96.80
2018-02-21T13:55:44.109Z,96.80
2018-02-21T13:58:11.824Z,96.40
2018-02-21T14:00:40.605Z,96.70
2018-02-21T14:03:09.185Z,96.60
2018-02-21T14:05:37.000Z,96.60
2018-02-21T14:08:04.528Z,96.50
2018-02-21T14:10:32.883Z,96.70
2018-02-21T14:13:00.733Z,96.60
2018-02-21T14:15:28.400Z,96.50
2018-02-21T14:17:56.009Z,96.40
2018-02-21T14:20:24.310Z,96.70
2018-02-21T14:22:52.646Z,96.20
2018-02-21T14:25:20.214Z,96.20
2018-02-21T14:27:47.767Z,96.30
2018-02-21T14:30:15.322Z,96.40
2018-02-21T14:32:42.855Z,96.20
2018-02-21T14:35:10.414Z,96.40
2018-02-21T14:37:37.966Z,96.80
2018-02-21T14:40:06.252Z,96.30
2018-02-21T14:42:34.553Z,96.80
2018-02-21T14:45:02.515Z,96.80
2018-02-21T14:47:30.094Z,96.70
2018-02-21T14:49:57.688Z,96.70
2018-02-21T14:52:25.273Z,96.60
2018-02-21T14:54:52.829Z,96.70
2018-02-21T14:57:20.359Z,96.80
2018-02-21T14:59:48.046Z,96.90
2018-02-21T15:02:16.398Z,96.70
2018-02-21T15:04:43.968Z,96.70
2018-02-21T15:07:11.547Z,96.50
2018-02-21T15:09:39.089Z,96.80
2018-02-21T15:12:06.646Z,97.00
2018-02-21T15:14:34.206Z,96.80
2018-02-21T15:17:01.752Z,96.80
2018-02-21T15:19:30.048Z,97.20
2018-02-21T15:21:57.589Z,97.30
2018-02-21T15:24:25.142Z,97.00
2018-02-21T15:26:52.710Z,97.10
2018-02-21T15:29:20.318Z,97.40
2018-02-21T15:31:47.845Z,96.90
2018-02-21T15:34:15.373Z,96.90
2018-02-21T15:36:43.015Z,97.00
2018-02-21T15:39:10.607Z,97.30
2018-02-21T15:41:38.160Z,97.50
2018-02-21T15:44:05.733Z,98.20
2018-02-21T15:46:33.271Z,97.70
2018-02-21T15:49:00.818Z,97.70
2018-02-21T15:51:28.394Z,97.40
2018-02-21T15:53:56.124Z,97.50
2018-02-21T15:56:24.474Z,97.90
2018-02-21T15:58:52.075Z,97.90
2018-02-21T16:01:19.872Z,97.80
2018-02-21T16:03:47.694Z,98.00
2018-02-21T16:06:15.276Z,98.10
2018-02-21T16:08:43.668Z,98.10
2018-02-21T16:11:11.987Z,98.10
2018-02-21T16:13:39.588Z,98.10
2018-02-21T16:16:07.405Z,97.90
2018-02-21T16:18:35.091Z,98.20
2018-02-21T16:21:02.704Z,98.10
2018-02-21T16:23:30.301Z,98.20
2018-02-21T16:25:57.933Z,98.40
2018-02-21T16:28:25.527Z,98.00
2018-02-21T16:30:53.144Z,97.90
2018-02-21T16:33:20.827Z,98.20
2018-02-21T16:35:48.404Z,98.40
2018-02-21T16:38:16.723Z,98.30
2018-02-21T16:40:44.324Z,98.30
2018-02-21T16:43:11.931Z,98.00
2018-02-21T16:45:40.305Z,98.00
2018-02-21T16:48:08.729Z,98.10
2018-02-21T16:50:36.601Z,98.10
2018-02-21T16:53:04.293Z,98.40
2018-02-21T16:55:31.886Z,98.20
2018-02-21T16:58:00.201Z,97.90
2018-02-21T17:00:27.793Z,97.90
2018-02-21T17:02:55.483Z,98.10
2018-02-21T17:05:23.059Z,97.90
2018-02-21T17:07:50.657Z,97.90
2018-02-21T17:10:18.234Z,98.20
2018-02-21T17:12:45.839Z,97.90
2018-02-21T17:15:13.488Z,97.80
2018-02-21T17:17:41.117Z,97.70
2018-02-21T17:20:08.672Z,97.80
2018-02-21T17:22:36.218Z,97.80
2018-02-21T17:25:04.594Z,97.50
2018-02-21T17:27:32.977Z,97.80
2018-02-21T17:30:01.352Z,98.30
2018-02-21T17:32:28.877Z,97.90
2018-02-21T17:34:56.410Z,97.90
2018-02-21T17:37:23.952Z,97.90
2018-02-21T17:39:52.304Z,97.80
2018-02-21T17:42:19.819Z,97.80
2018-02-21T17:44:47.429Z,97.50
2018-02-21T17:47:14.959Z,97.80
2018-02-21T17:49:42.485Z,97.70
2018-02-21T17:52:10.052Z,98.10
2018-02-21T17:54:38.339Z,98.40
2018-02-21T17:57:06.684Z,98.10
2018-02-21T17:59:34.233Z,98.00
2018-02-21T18:02:01.842Z,98.00
2018-02-21T18:04:30.185Z,97.80
2018-02-21T18:06:57.742Z,97.70
2018-02-21T18:09:25.388Z,98.00
2018-02-21T18:11:53.003Z,97.90
2018-02-21T18:14:20.514Z,97.90
2018-02-21T18:16:48.146Z,98.10
2018-02-21T18:19:16.466Z,98.10
2018-02-21T18:21:49.724Z,98.10
2018-02-21T18:24:17.270Z,98.00
2018-02-21T18:26:44.802Z,98.30
2018-02-21T18:29:12.426Z,98.40
2018-02-21T18:31:40.771Z,98.20
2018-02-21T18:34:09.117Z,97.90
2018-02-21T18:36:36.693Z,97.80
2018-02-21T18:39:04.278Z,98.10
2018-02-21T18:41:31.969Z,98.40
2018-02-21T18:43:59.543Z,98.50
2018-02-21T18:46:27.881Z,98.60
2018-02-21T18:48:55.468Z,98.60
2018-02-21T18:51:23.123Z,98.70
2018-02-21T18:53:50.739Z,98.60
2018-02-21T18:56:18.405Z,98.70
2018-02-21T18:58:46.016Z,98.70
2018-02-21T19:01:14.316Z,98.40
2018-02-21T19:03:41.877Z,98.50
2018-02-21T19:06:09.609Z,98.50
2018-02-21T19:08:37.225Z,98.30
2018-02-21T19:11:05.598Z,98.90
2018-02-21T19:13:33.165Z,98.90
2018-02-21T19:16:00.759Z,99.10
2018-02-21T19:18:28.337Z,98.80
2018-02-21T19:20:55.853Z,98.90
2018-02-21T19:23:24.216Z,98.60
2018-02-21T19:25:51.865Z,98.60
2018-02-21T19:28:19.419Z,98.60
2018-02-21T19:30:47.004Z,98.70
2018-02-21T19:33:14.637Z,98.80
2018-02-21T19:35:42.265Z,98.20
2018-02-21T19:38:09.981Z,98.20
2018-02-21T19:40:37.634Z,99.20
2018-02-21T19:43:05.297Z,99.00
2018-02-21T19:45:32.851Z,99.10
2018-02-21T19:48:01.178Z,99.10
2018-02-21T19:50:28.772Z,99.10
2018-02-21T19:52:57.453Z,99.10
2018-02-21T19:55:25.589Z,99.00
2018-02-21T19:57:53.222Z,99.60
2018-02-21T20:00:21.568Z,99.20
2018-02-21T20:02:49.141Z,99.20
2018-02-21T20:05:16.676Z,98.80
2018-02-21T20:07:44.274Z,98.70
2018-02-21T20:10:11.920Z,98.50
2018-02-21T20:12:39.492Z,98.40
2018-02-21T20:15:07.175Z,98.80
2018-02-21T20:17:34.804Z,98.70
2018-02-21T20:20:02.452Z,98.40
2018-02-21T20:22:30.058Z,98.60
2018-02-21T20:24:57.650Z,98.70
2018-02-21T20:27:26.297Z,99.00
2018-02-21T20:29:54.635Z,99.50
2018-02-21T20:32:22.962Z,99.50
2018-02-21T20:34:50.583Z,99.50
2018-02-21T20:37:19.006Z,99.70
2018-02-21T20:39:46.545Z,99.70
2018-02-21T20:42:14.126Z,99.80
2018-02-21T20:44:41.748Z,99.90
2018-02-21T20:47:10.131Z,99.90
2018-02-21T20:49:38.458Z,99.90
2018-02-21T20:52:06.113Z,99.90
2018-02-21T20:54:33.770Z,99.90
2018-02-21T20:57:01.394Z,99.90
2018-02-21T20:59:29.781Z,99.90
2018-02-21T21:01:57.396Z,99.90
2018-02-21T21:04:25.042Z,99.90
2018-02-21T21:06:52.682Z,99.90
2018-02-21T21:09:20.235Z,99.90
2018-02-21T21:11:47.774Z,99.90
2018-02-21T21:14:15.391Z,99.90
2018-02-21T21:16:43.740Z,99.90
2018-02-21T21:19:11.334Z,99.90
2018-02-21T21:21:39.858Z,99.90
2018-02-21T21:24:07.515Z,99.90
2018-02-21T21:26:35.093Z,99.90
2018-02-21T21:29:02.692Z,99.90
2018-02-21T21:31:30.304Z,99.90
2018-02-21T21:33:58.936Z,99.90
2018-02-21T21:36:26.505Z,99.90
2018-02-21T21:38:54.105Z,99.90
2018-02-21T21:41:22.444Z,99.90
2018-02-21T21:43:50.114Z,99.90
2018-02-21T21:46:17.903Z,99.90
2018-02-21T21:48:46.277Z,99.90
2018-02-21T21:51:13.825Z,99.90
2018-02-21T21:53:41.428Z,99.90
2018-02-21T21:56:08.993Z,99.90
2018-02-21T21:58:37.303Z,99.90
2018-02-21T22:01:04.894Z,99.90
2018-02-21T22:03:32.434Z,99.90
2018-02-21T22:05:59.955Z,99.90
2018-02-21T22:08:28.294Z,99.90
2018-02-21T22:10:55.815Z,99.90
2018-02-21T22:13:24.208Z,99.90
2018-02-21T22:15:52.530Z,99.90
2018-02-21T22:18:20.818Z,99.90
2018-02-21T22:20:48.351Z,99.90
2018-02-21T22:23:15.913Z,99.90
2018-02-21T22:25:43.517Z,99.90
2018-02-21T22:28:11.062Z,99.90
2018-02-21T22:30:38.621Z,99.90
2018-02-21T22:33:06.171Z,99.90
2018-02-21T22:35:33.712Z,99.90
2018-02-21T22:38:01.257Z,99.90
2018-02-21T22:40:29.702Z,99.90
2018-02-21T22:42:58.283Z,99.90
2018-02-21T22:45:25.859Z,99.90
2018-02-21T22:47:53.518Z,99.90
2018-02-21T22:50:21.110Z,99.90
2018-02-21T22:52:48.638Z,99.90
2018-02-21T22:55:16.188Z,99.90
2018-02-21T22:57:43.745Z,99.90
2018-02-21T23:00:11.269Z,99.90
2018-02-21T23:02:38.824Z,99.90
2018-02-21T23:05:06.413Z,99.90
2018-02-21T23:07:34.721Z,99.90
2018-02-21T23:10:02.264Z,99.90
2018-02-21T23:12:29.829Z,99.90
2018-02-21T23:14:58.131Z,99.90
2018-02-21T23:17:25.663Z,99.90
2018-02-21T23:19:54.040Z,99.90
2018-02-21T23:22:22.325Z,99.90
2018-02-21T23:24:50.633Z,99.90
2018-02-21T23:27:18.156Z,99.90
2018-02-21T23:29:45.693Z,99.90
2018-02-21T23:32:13.231Z,99.90
2018-02-21T23:34:40.741Z,99.90
2018-02-21T23:37:08.313Z,99.90
2018-02-21T23:39:35.865Z,99.90
2018-02-21T23:42:03.372Z,99.90
2018-02-21T23:44:30.907Z,99.90
2018-02-21T23:46:59.263Z,99.90
2018-02-21T23:49:26.769Z,99.90
2018-02-21T23:51:55.036Z,99.90
2018-02-21T23:54:23.350Z,99.90
2018-02-21T23:56:50.869Z,99.90
2018-02-21T23:59:18.396Z,99.90
